Time;durP1;ratioP1;P1;durP2;ratioP2;P2;SDS_P1;SDS_P2;PMS_P1;PMS_P2;Temp;Humidity;BMP_temperature;BMP_pressure;BME280_temperature;BME280_humidity;BME280_pressure;Samples;Min_cycle;Max_cycle;Signal;HPM_P1;HPM_P2
2021/04/10 00:00:42;;;;;;;6.00;2.33;;;;;;;;;;5058710;28;20441;-71
2021/04/10 00:03:10;;;;;;;5.67;3.03;;;;;;;;;;5049528;28;20754;-71
2021/04/10 00:05:40;;;;;;;10.10;4.00;;;;;;;;;;5034531;28;20507;-71
2021/04/10 00:08:09;;;;;;;7.93;3.50;;;;;;;;;;5018977;28;20892;-71
2021/04/10 00:10:38;;;;;;;10.70;2.00;;;;;;;;;;5019028;28;20537;-71
2021/04/10 00:13:05;;;;;;;9.17;2.50;;;;;;;;;;5019553;28;20468;-71
2021/04/10 00:15:33;;;;;;;10.07;2.70;;;;;;;;;;5018804;28;20486;-71
2021/04/10 00:18:01;;;;;;;7.00;1.90;;;;;;;;;;5018960;28;20463;-71
2021/04/10 00:20:28;;;;;;;7.73;2.40;;;;;;;;;;5018913;28;20790;-71
2021/04/10 00:22:56;;;;;;;5.97;2.17;;;;;;;;;;5018673;28;20471;-71
2021/04/10 00:25:25;;;;;;;5.53;1.40;;;;;;;;;;5018458;28;20462;-71
2021/04/10 00:27:52;;;;;;;9.13;2.20;;;;;;;;;;5018847;28;20850;-70
2021/04/10 00:30:20;;;;;;;5.83;1.90;;;;;;;;;;5018644;28;20484;-71
2021/04/10 00:32:50;;;;;;;7.23;2.13;;;;;;;;;;5018584;28;20471;-72
2021/04/10 00:35:17;;;;;;;4.90;1.63;;;;;;;;;;5018339;28;20859;-72
2021/04/10 00:37:48;;;;;;;8.33;2.37;;;;;;;;;;5019285;28;21082;-72
2021/04/10 00:40:15;;;;;;;5.93;2.20;;;;;;;;;;5026128;28;20443;-72
2021/04/10 00:42:43;;;;;;;7.30;2.30;;;;;;;;;;5026146;28;20534;-72
2021/04/10 00:45:11;;;;;;;6.43;2.37;;;;;;;;;;5021953;28;20490;-72
2021/04/10 00:47:40;;;;;;;8.30;2.50;;;;;;;;;;5021339;28;20794;-73
2021/04/10 00:50:09;;;;;;;5.97;1.63;;;;;;;;;;5044702;28;20488;-71
2021/04/10 00:52:37;;;;;;;9.00;2.13;;;;;;;;;;5040919;28;20454;-71
2021/04/10 00:55:06;;;;;;;9.00;1.63;;;;;;;;;;5036688;28;20963;-72
2021/04/10 00:57:33;;;;;;;4.20;1.30;;;;;;;;;;5034353;28;20455;-72
2021/04/10 01:00:04;;;;;;;6.13;2.20;;;;;;;;;;5036195;28;20442;-71
2021/04/10 01:02:35;;;;;;;9.50;2.30;;;;;;;;;;5038139;28;20552;-71
2021/04/10 01:05:06;;;;;;;5.13;2.13;;;;;;;;;;5031702;28;20515;-72
2021/04/10 01:07:35;;;;;;;8.90;3.10;;;;;;;;;;5031319;28;20454;-72
2021/04/10 01:10:04;;;;;;;11.63;2.40;;;;;;;;;;5037507;28;20504;-72
2021/04/10 01:12:39;;;;;;;15.30;2.80;;;;;;;;;;5037813;28;20885;-71
2021/04/10 01:15:12;;;;;;;6.70;2.23;;;;;;;;;;5037268;28;20450;-71
2021/04/10 01:17:43;;;;;;;7.13;2.33;;;;;;;;;;5037361;28;20459;-71
2021/04/10 01:20:15;;;;;;;8.20;2.00;;;;;;;;;;5037477;28;20447;-71
2021/04/10 01:23:06;;;;;;;13.20;1.93;;;;;;;;;;5037302;28;20852;-71
2021/04/10 01:25:41;;;;;;;7.30;1.83;;;;;;;;;;5036021;28;20605;-71
2021/04/10 01:28:12;;;;;;;9.20;2.73;;;;;;;;;;5037730;28;20459;-71
2021/04/10 01:30:41;;;;;;;7.93;1.73;;;;;;;;;;5037410;28;20486;-71
2021/04/10 01:33:11;;;;;;;10.83;2.40;;;;;;;;;;5037448;28;20474;-71
2021/04/10 01:35:42;;;;;;;12.23;3.47;;;;;;;;;;5036643;28;20458;-71
2021/04/10 01:38:10;;;;;;;5.27;1.87;;;;;;;;;;5037313;28;20466;-71
2021/04/10 01:40:42;;;;;;;4.73;2.67;;;;;;;;;;5036796;28;20536;-71
2021/04/10 01:43:10;;;;;;;6.93;2.93;;;;;;;;;;5037048;28;20467;-71
2021/04/10 01:45:37;;;;;;;8.47;1.97;;;;;;;;;;5037386;28;20458;-71
2021/04/10 01:48:22;;;;;;;8.77;2.27;;;;;;;;;;5036202;28;20477;-71
2021/04/10 01:50:50;;;;;;;7.83;2.40;;;;;;;;;;5037008;28;20779;-71
2021/04/10 01:53:20;;;;;;;5.77;2.50;;;;;;;;;;5035796;28;20556;-71
2021/04/10 01:55:48;;;;;;;11.30;2.57;;;;;;;;;;5035753;28;20455;-71
2021/04/10 01:58:16;;;;;;;6.83;2.27;;;;;;;;;;5032241;28;20455;-71
2021/04/10 02:00:46;;;;;;;12.33;3.53;;;;;;;;;;5036936;28;20513;-71
2021/04/10 02:03:14;;;;;;;7.20;2.83;;;;;;;;;;5035125;28;20517;-71
2021/04/10 02:05:45;;;;;;;29.50;4.20;;;;;;;;;;5036739;28;20469;-71
2021/04/10 02:08:15;;;;;;;10.07;4.00;;;;;;;;;;5036848;28;20466;-72
2021/04/10 02:10:42;;;;;;;11.37;3.40;;;;;;;;;;5036702;28;20518;-72
2021/04/10 02:13:10;;;;;;;8.10;2.80;;;;;;;;;;5036673;28;20494;-71
2021/04/10 02:15:37;;;;;;;10.83;2.60;;;;;;;;;;5036738;28;20796;-71
2021/04/10 02:18:05;;;;;;;11.20;2.60;;;;;;;;;;5036075;28;20454;-71
2021/04/10 02:20:32;;;;;;;13.20;3.53;;;;;;;;;;5032715;28;20481;-71
2021/04/10 02:23:00;;;;;;;11.47;2.63;;;;;;;;;;5037023;28;20898;-71
2021/04/10 02:25:29;;;;;;;12.80;3.10;;;;;;;;;;5036412;28;20488;-71
2021/04/10 02:27:57;;;;;;;7.70;2.60;;;;;;;;;;5035061;28;20475;-71
2021/04/10 02:30:24;;;;;;;10.70;3.43;;;;;;;;;;5026599;28;20475;-71
2021/04/10 02:32:56;;;;;;;5.10;2.20;;;;;;;;;;5021263;28;20498;-72
2021/04/10 02:35:26;;;;;;;8.30;2.87;;;;;;;;;;5020240;28;20458;-71
2021/04/10 02:37:56;;;;;;;7.10;2.90;;;;;;;;;;5044337;28;20496;-72
2021/04/10 02:40:37;;;;;;;9.77;3.60;;;;;;;;;;5053571;28;20446;-72
2021/04/10 02:43:07;;;;;;;9.47;2.83;;;;;;;;;;5036113;28;20712;-71
2021/04/10 02:45:37;;;;;;;11.03;2.90;;;;;;;;;;5036413;28;20453;-72
2021/04/10 02:48:08;;;;;;;8.90;2.97;;;;;;;;;;5038229;28;20847;-73
2021/04/10 02:50:37;;;;;;;6.77;3.03;;;;;;;;;;5039882;28;20479;-71
2021/04/10 02:53:05;;;;;;;7.70;2.70;;;;;;;;;;5040573;28;20865;-71
2021/04/10 02:55:38;;;;;;;6.73;2.70;;;;;;;;;;5040101;28;20454;-71
2021/04/10 02:58:07;;;;;;;7.70;3.53;;;;;;;;;;5040357;28;20528;-71
2021/04/10 03:00:36;;;;;;;9.00;3.77;;;;;;;;;;5039933;28;20894;-71
2021/04/10 03:03:06;;;;;;;9.80;3.57;;;;;;;;;;5040240;28;20470;-72
2021/04/10 03:05:35;;;;;;;11.13;2.83;;;;;;;;;;5024422;28;20460;-72
2021/04/10 03:08:07;;;;;;;9.90;4.80;;;;;;;;;;5057907;28;20453;-72
2021/04/10 03:10:41;;;;;;;8.27;3.47;;;;;;;;;;5060021;28;20489;-71
2021/04/10 03:13:09;;;;;;;23.47;3.87;;;;;;;;;;5059730;28;20488;-71
2021/04/10 03:15:41;;;;;;;7.57;2.93;;;;;;;;;;5041302;28;20964;-71
2021/04/10 03:18:11;;;;;;;13.27;3.10;;;;;;;;;;5039445;28;20467;-71
2021/04/10 03:20:42;;;;;;;10.53;3.43;;;;;;;;;;5034679;28;20486;-72
2021/04/10 03:23:13;;;;;;;11.17;3.40;;;;;;;;;;5019785;28;20913;-71
2021/04/10 03:25:42;;;;;;;10.50;3.63;;;;;;;;;;5019657;28;20473;-71
2021/04/10 03:28:13;;;;;;;14.83;3.73;;;;;;;;;;5043038;28;20896;-71
2021/04/10 03:30:44;;;;;;;13.20;3.47;;;;;;;;;;5039562;28;20486;-71
2021/04/10 03:33:11;;;;;;;14.23;3.20;;;;;;;;;;5039847;28;20553;-71
2021/04/10 03:35:39;;;;;;;8.00;3.60;;;;;;;;;;5039604;28;20453;-71
2021/04/10 03:38:13;;;;;;;17.13;4.73;;;;;;;;;;5034923;28;20785;-70
2021/04/10 03:40:41;;;;;;;7.80;3.60;;;;;;;;;;5039199;28;20445;-71
2021/04/10 03:43:12;;;;;;;9.23;3.50;;;;;;;;;;5038937;28;20539;-71
2021/04/10 03:45:41;;;;;;;9.83;3.67;;;;;;;;;;5040037;28;20474;-71
2021/04/10 03:48:13;;;;;;;8.63;3.80;;;;;;;;;;5028245;28;20481;-70
2021/04/10 03:53:28;;;;;;;13.77;3.90;;;;;;;;;;4987405;28;20451;-72
2021/04/10 03:55:55;;;;;;;8.17;3.60;;;;;;;;;;5022521;28;20450;-71
2021/04/10 03:58:29;;;;;;;10.07;4.00;;;;;;;;;;5036850;28;20455;-71
2021/04/10 04:01:09;;;;;;;7.47;3.30;;;;;;;;;;5026889;28;20445;-72
2021/04/10 04:03:44;;;;;;;13.10;3.90;;;;;;;;;;5032440;28;20490;-70
2021/04/10 04:06:14;;;;;;;7.40;2.97;;;;;;;;;;5019052;28;20462;-71
2021/04/10 04:08:41;;;;;;;12.10;3.30;;;;;;;;;;5019212;28;20467;-71
2021/04/10 04:11:09;;;;;;;8.97;4.13;;;;;;;;;;5018760;28;20485;-71
2021/04/10 04:13:39;;;;;;;14.90;4.20;;;;;;;;;;5019542;28;20950;-71
2021/04/10 04:16:07;;;;;;;8.10;4.17;;;;;;;;;;5019205;28;20542;-70
2021/04/10 04:18:34;;;;;;;9.00;3.73;;;;;;;;;;5018749;28;20463;-70
2021/04/10 04:21:01;;;;;;;10.83;3.67;;;;;;;;;;5017977;28;20456;-71
2021/04/10 04:23:29;;;;;;;9.97;3.20;;;;;;;;;;5019007;28;20513;-71
2021/04/10 04:25:56;;;;;;;10.97;3.40;;;;;;;;;;5019498;28;20492;-70
2021/04/10 04:31:17;;;;;;;8.20;3.10;;;;;;;;;;5033586;28;20502;-71
2021/04/10 04:33:44;;;;;;;12.47;4.20;;;;;;;;;;5042839;28;20548;-71
2021/04/10 04:36:11;;;;;;;8.10;3.63;;;;;;;;;;5037215;28;20454;-72
2021/04/10 04:38:38;;;;;;;10.00;3.63;;;;;;;;;;5033039;28;20455;-71
2021/04/10 04:41:11;;;;;;;10.07;3.70;;;;;;;;;;5022732;28;20455;-72
2021/04/10 04:43:39;;;;;;;10.57;3.73;;;;;;;;;;5022064;28;20459;-71
2021/04/10 04:46:09;;;;;;;11.80;3.47;;;;;;;;;;5020426;28;20451;-71
2021/04/10 04:48:37;;;;;;;16.90;3.73;;;;;;;;;;5021249;28;20473;-71
2021/04/10 04:51:04;;;;;;;8.83;3.80;;;;;;;;;;5027956;28;20489;-72
2021/04/10 04:53:32;;;;;;;17.60;4.13;;;;;;;;;;5034930;28;20522;-72
2021/04/10 04:55:59;;;;;;;6.60;3.30;;;;;;;;;;5034792;28;20463;-72
2021/04/10 04:58:26;;;;;;;11.97;4.37;;;;;;;;;;5030684;28;20493;-71
2021/04/10 05:00:54;;;;;;;10.10;4.10;;;;;;;;;;5028319;28;20843;-71
2021/04/10 05:03:21;;;;;;;10.27;3.63;;;;;;;;;;5020250;28;20460;-71
2021/04/10 05:05:50;;;;;;;18.20;3.90;;;;;;;;;;5032901;28;20527;-72
2021/04/10 05:08:17;;;;;;;8.93;3.30;;;;;;;;;;5038185;28;20450;-71
2021/04/10 05:10:44;;;;;;;12.50;4.30;;;;;;;;;;5037936;28;20498;-71
2021/04/10 05:13:27;;;;;;;9.50;3.97;;;;;;;;;;5032577;28;20536;-70
2021/04/10 05:15:58;;;;;;;18.20;4.37;;;;;;;;;;5037425;28;20486;-70
2021/04/10 05:18:27;;;;;;;12.13;3.87;;;;;;;;;;5042589;28;20736;-70
2021/04/10 05:20:55;;;;;;;9.50;3.50;;;;;;;;;;5052351;28;20455;-70
2021/04/10 05:23:23;;;;;;;9.63;3.80;;;;;;;;;;5041846;28;20465;-70
2021/04/10 05:25:50;;;;;;;11.37;3.13;;;;;;;;;;5057100;28;20562;-71
2021/04/10 05:28:19;;;;;;;8.30;3.77;;;;;;;;;;5044333;28;20477;-71
2021/04/10 05:30:48;;;;;;;13.27;3.70;;;;;;;;;;5037362;28;20494;-71
2021/04/10 05:33:17;;;;;;;10.07;3.93;;;;;;;;;;5037968;28;20462;-71
2021/04/10 05:35:51;;;;;;;14.97;4.27;;;;;;;;;;5037199;28;20446;-71
2021/04/10 05:38:20;;;;;;;10.93;4.07;;;;;;;;;;5037654;28;20450;-71
2021/04/10 05:40:52;;;;;;;8.53;3.60;;;;;;;;;;5052007;28;20454;-71
2021/04/10 05:43:31;;;;;;;10.83;3.30;;;;;;;;;;5056440;28;20473;-71
2021/04/10 05:46:09;;;;;;;11.90;4.20;;;;;;;;;;5055129;28;20530;-72
2021/04/10 05:48:41;;;;;;;15.10;3.70;;;;;;;;;;5030094;28;20461;-71
2021/04/10 05:51:13;;;;;;;11.50;5.83;;;;;;;;;;5051441;28;20495;-72
2021/04/10 05:53:51;;;;;;;8.53;3.20;;;;;;;;;;5054866;28;20441;-72
2021/04/10 05:56:21;;;;;;;11.07;4.17;;;;;;;;;;5036333;28;20458;-72
2021/04/10 05:58:53;;;;;;;7.47;2.93;;;;;;;;;;5036706;28;20457;-72
2021/04/10 06:01:30;;;;;;;14.60;4.03;;;;;;;;;;5028633;28;20456;-72
2021/04/10 06:04:01;;;;;;;15.53;5.00;;;;;;;;;;5024655;28;20451;-71
2021/04/10 06:06:39;;;;;;;9.90;4.17;;;;;;;;;;5023759;28;20882;-71
2021/04/10 06:09:13;;;;;;;8.37;3.80;;;;;;;;;;5017283;28;20456;-71
2021/04/10 06:11:49;;;;;;;12.53;4.10;;;;;;;;;;5016554;28;20474;-71
2021/04/10 06:14:16;;;;;;;10.20;3.33;;;;;;;;;;5016786;28;20549;-71
2021/04/10 06:16:55;;;;;;;14.23;3.70;;;;;;;;;;5038848;28;20464;-71
2021/04/10 06:19:30;;;;;;;7.43;3.37;;;;;;;;;;5056598;28;20533;-71
2021/04/10 06:21:58;;;;;;;7.70;3.47;;;;;;;;;;5042070;28;20446;-72
2021/04/10 06:24:29;;;;;;;7.50;3.03;;;;;;;;;;5038209;28;20466;-71
2021/04/10 06:26:56;;;;;;;9.97;2.30;;;;;;;;;;5036187;28;20542;-71
2021/04/10 06:29:27;;;;;;;17.00;3.43;;;;;;;;;;5038275;28;20462;-71
2021/04/10 06:31:55;;;;;;;9.03;2.53;;;;;;;;;;5036944;28;20462;-71
2021/04/10 06:34:22;;;;;;;9.73;2.80;;;;;;;;;;5052609;28;20489;-70
2021/04/10 06:36:53;;;;;;;8.90;2.97;;;;;;;;;;5034073;28;20458;-70
2021/04/10 06:39:21;;;;;;;8.10;2.00;;;;;;;;;;5016113;28;20466;-72
2021/04/10 06:41:49;;;;;;;9.03;3.10;;;;;;;;;;5016169;28;20535;-71
2021/04/10 06:44:17;;;;;;;21.20;5.00;;;;;;;;;;5016257;28;20463;-71
2021/04/10 06:46:47;;;;;;;7.60;1.90;;;;;;;;;;5016036;28;20455;-71
2021/04/10 06:49:14;;;;;;;7.03;2.30;;;;;;;;;;5016130;28;20494;-71
2021/04/10 06:51:42;;;;;;;13.60;2.00;;;;;;;;;;5016118;28;20523;-70
2021/04/10 06:54:10;;;;;;;9.83;2.77;;;;;;;;;;5016330;28;20460;-71
2021/04/10 06:56:38;;;;;;;8.40;2.23;;;;;;;;;;5016255;28;20462;-70
2021/04/10 06:59:10;;;;;;;11.53;3.80;;;;;;;;;;5015963;28;20452;-70
2021/04/10 07:01:37;;;;;;;10.67;2.87;;;;;;;;;;5015636;28;20463;-70
2021/04/10 07:04:26;;;;;;;5.53;1.80;;;;;;;;;;5015263;28;20590;-71
2021/04/10 07:06:53;;;;;;;10.10;2.57;;;;;;;;;;5015760;28;20467;-71
2021/04/10 07:09:21;;;;;;;10.03;2.60;;;;;;;;;;5023734;28;20442;-70
2021/04/10 07:11:50;;;;;;;6.80;2.17;;;;;;;;;;5055840;28;21183;-70
2021/04/10 07:14:18;;;;;;;9.13;2.20;;;;;;;;;;5055193;28;20538;-70
2021/04/10 07:16:45;;;;;;;7.77;1.80;;;;;;;;;;5055110;28;20469;-70
2021/04/10 07:19:13;;;;;;;7.20;2.10;;;;;;;;;;5016201;28;20746;-70
2021/04/10 07:21:41;;;;;;;5.77;1.90;;;;;;;;;;5015649;28;20460;-70
2021/04/10 07:24:08;;;;;;;6.20;1.63;;;;;;;;;;5015868;28;20451;-70
2021/04/10 07:26:57;;;;;;;6.37;2.97;;;;;;;;;;5015483;28;20455;-70
2021/04/10 07:29:32;;;;;;;7.13;1.50;;;;;;;;;;5015315;28;20523;-70
2021/04/10 07:32:00;;;;;;;6.13;2.00;;;;;;;;;;5020635;28;20466;-70
2021/04/10 07:34:28;;;;;;;10.97;2.50;;;;;;;;;;5028969;28;20514;-71
2021/04/10 07:37:03;;;;;;;7.43;2.00;;;;;;;;;;5026025;28;20451;-72
2021/04/10 07:39:53;;;;;;;5.03;1.40;;;;;;;;;;5019962;28;20746;-71
2021/04/10 07:42:27;;;;;;;9.47;2.13;;;;;;;;;;5037243;28;20519;-71
2021/04/10 07:44:56;;;;;;;6.83;1.43;;;;;;;;;;5058052;28;20545;-70
2021/04/10 07:47:40;;;;;;;7.17;1.97;;;;;;;;;;5039245;28;20458;-72
2021/04/10 07:50:22;;;;;;;8.57;2.33;;;;;;;;;;5037588;28;20982;-71
2021/04/10 07:52:53;;;;;;;9.33;2.10;;;;;;;;;;5038254;28;20451;-71
2021/04/10 07:55:41;;;;;;;5.00;1.87;;;;;;;;;;5031929;28;20451;-71
2021/04/10 07:58:25;;;;;;;8.50;1.97;;;;;;;;;;5031640;28;20520;-70
2021/04/10 08:01:01;;;;;;;5.30;1.80;;;;;;;;;;5028123;28;21853;-70
2021/04/10 08:03:32;;;;;;;8.53;1.50;;;;;;;;;;5026356;28;20440;-70
2021/04/10 08:06:18;;;;;;;5.63;1.20;;;;;;;;;;5022958;28;20456;-70
2021/04/10 08:08:50;;;;;;;5.27;1.57;;;;;;;;;;5019685;28;20451;-70
2021/04/10 08:11:32;;;;;;;3.23;1.00;;;;;;;;;;5019271;28;20896;-70
2021/04/10 08:14:04;;;;;;;7.70;1.60;;;;;;;;;;5018385;28;20830;-69
2021/04/10 08:16:32;;;;;;;9.27;1.70;;;;;;;;;;5024523;28;20463;-69
2021/04/10 08:19:03;;;;;;;8.60;2.57;;;;;;;;;;5025078;28;20454;-69
2021/04/10 08:21:41;;;;;;;7.80;1.60;;;;;;;;;;5035282;28;20529;-69
2021/04/10 08:24:23;;;;;;;8.13;1.70;;;;;;;;;;5033569;28;20895;-69
2021/04/10 08:26:54;;;;;;;9.50;2.07;;;;;;;;;;5031825;28;20491;-70
2021/04/10 08:29:25;;;;;;;8.57;2.50;;;;;;;;;;5021301;28;20482;-70
2021/04/10 08:31:57;;;;;;;3.60;1.73;;;;;;;;;;5017854;28;20451;-70
2021/04/10 08:34:26;;;;;;;5.60;1.70;;;;;;;;;;5017231;28;20532;-69
2021/04/10 08:36:54;;;;;;;9.40;2.20;;;;;;;;;;5017799;28;20550;-70
2021/04/10 08:39:24;;;;;;;5.40;2.50;;;;;;;;;;5018192;28;20525;-69
2021/04/10 08:41:55;;;;;;;7.17;1.90;;;;;;;;;;5017256;28;20495;-70
2021/04/10 08:44:25;;;;;;;15.97;4.30;;;;;;;;;;5024611;28;20487;-71
2021/04/10 08:46:53;;;;;;;8.83;3.33;;;;;;;;;;5033332;28;20439;-70
2021/04/10 08:49:21;;;;;;;4.87;1.20;;;;;;;;;;5036972;28;20465;-69
2021/04/10 08:51:51;;;;;;;11.30;2.20;;;;;;;;;;5036721;28;20486;-69
2021/04/10 08:54:23;;;;;;;6.00;1.97;;;;;;;;;;5028540;28;20464;-70
2021/04/10 08:56:56;;;;;;;13.57;2.47;;;;;;;;;;5027813;28;20882;-70
2021/04/10 08:59:34;;;;;;;11.33;2.47;;;;;;;;;;5033004;28;20465;-69
2021/04/10 09:02:10;;;;;;;8.43;2.03;;;;;;;;;;5032891;28;20453;-69
2021/04/10 09:04:56;;;;;;;4.40;1.47;;;;;;;;;;5042355;28;20488;-70
2021/04/10 09:07:43;;;;;;;9.40;1.80;;;;;;;;;;5032895;28;20449;-70
2021/04/10 09:10:12;;;;;;;6.70;1.10;;;;;;;;;;5007873;28;20557;-71
2021/04/10 09:12:41;;;;;;;7.17;1.93;;;;;;;;;;5024563;28;20518;-70
2021/04/10 09:15:10;;;;;;;6.17;2.47;;;;;;;;;;5025477;28;20470;-70
2021/04/10 09:17:56;;;;;;;7.30;1.73;;;;;;;;;;5017378;28;20852;-70
2021/04/10 09:20:38;;;;;;;4.80;2.17;;;;;;;;;;5029646;28;20470;-70
2021/04/10 09:23:08;;;;;;;15.17;4.73;;;;;;;;;;5023200;28;20487;-70
2021/04/10 09:25:38;;;;;;;7.20;1.80;;;;;;;;;;5039445;28;20546;-71
2021/04/10 09:28:06;;;;;;;4.30;1.80;;;;;;;;;;5056098;28;20455;-70
2021/04/10 09:30:37;;;;;;;6.27;2.00;;;;;;;;;;5036994;28;20495;-70
2021/04/10 09:33:25;;;;;;;5.37;1.20;;;;;;;;;;5031933;28;20930;-70
2021/04/10 09:35:52;;;;;;;9.00;1.30;;;;;;;;;;5043672;28;20543;-70
2021/04/10 09:38:36;;;;;;;7.37;1.40;;;;;;;;;;5055913;28;20811;-70
2021/04/10 09:41:05;;;;;;;9.07;3.33;;;;;;;;;;5056189;28;20442;-70
2021/04/10 09:43:32;;;;;;;2.97;1.20;;;;;;;;;;5050401;28;20463;-70
2021/04/10 09:46:00;;;;;;;6.97;1.63;;;;;;;;;;5036431;28;20910;-69
2021/04/10 09:48:38;;;;;;;10.60;1.70;;;;;;;;;;5036308;28;20524;-70
2021/04/10 09:51:39;;;;;;;11.53;2.40;;;;;;;;;;5028008;28;20906;-71
2021/04/10 09:54:12;;;;;;;9.93;2.07;;;;;;;;;;4972075;28;20533;-69
2021/04/10 09:56:44;;;;;;;3.40;1.23;;;;;;;;;;5031645;28;20451;-69
2021/04/10 09:59:11;;;;;;;3.97;1.40;;;;;;;;;;5032835;28;20605;-69
2021/04/10 10:01:39;;;;;;;5.33;1.60;;;;;;;;;;5031880;28;20863;-69
2021/04/10 10:04:15;;;;;;;11.17;2.07;;;;;;;;;;5028014;28;20467;-72
2021/04/10 10:06:46;;;;;;;9.90;1.90;;;;;;;;;;5023330;28;20471;-70
2021/04/10 10:09:26;;;;;;;3.77;1.30;;;;;;;;;;5026724;28;20478;-70
2021/04/10 10:11:56;;;;;;;6.30;1.20;;;;;;;;;;5019889;28;20494;-71
2021/04/10 10:14:27;;;;;;;2.87;1.10;;;;;;;;;;5031413;28;20471;-70
2021/04/10 10:17:10;;;;;;;4.60;1.40;;;;;;;;;;5018701;28;20744;-71
2021/04/10 10:19:38;;;;;;;4.93;1.40;;;;;;;;;;5025379;28;20550;-71
2021/04/10 10:22:26;;;;;;;8.87;1.30;;;;;;;;;;5031308;28;20454;-72
2021/04/10 10:25:03;;;;;;;13.63;2.47;;;;;;;;;;5032002;28;20537;-71
2021/04/10 10:27:38;;;;;;;13.40;2.90;;;;;;;;;;5029581;28;20839;-70
2021/04/10 10:30:12;;;;;;;6.80;1.47;;;;;;;;;;5026306;28;20498;-71
2021/04/10 10:32:46;;;;;;;9.60;2.20;;;;;;;;;;5035230;28;20462;-71
2021/04/10 10:35:13;;;;;;;9.93;2.37;;;;;;;;;;5034477;28;20470;-70
2021/04/10 10:37:41;;;;;;;8.67;2.40;;;;;;;;;;5033152;28;20473;-71
2021/04/10 10:40:09;;;;;;;3.90;1.83;;;;;;;;;;5020027;28;20505;-71
2021/04/10 10:42:48;;;;;;;7.60;2.00;;;;;;;;;;5018158;28;20475;-70
2021/04/10 10:45:33;;;;;;;4.93;1.47;;;;;;;;;;5028736;28;20518;-71
2021/04/10 10:48:20;;;;;;;9.93;3.30;;;;;;;;;;5034666;28;20477;-70
2021/04/10 10:50:48;;;;;;;6.03;1.30;;;;;;;;;;5021105;28;20487;-70
2021/04/10 10:53:17;;;;;;;12.67;1.77;;;;;;;;;;5016429;28;20478;-70
2021/04/10 10:55:57;;;;;;;6.33;1.77;;;;;;;;;;5016600;28;20456;-70
2021/04/10 10:58:26;;;;;;;7.00;1.60;;;;;;;;;;5016594;28;20471;-70
2021/04/10 11:01:24;;;;;;;10.90;2.77;;;;;;;;;;5026233;28;20517;-70
2021/04/10 11:03:55;;;;;;;6.23;2.00;;;;;;;;;;5036201;28;20463;-70
2021/04/10 11:06:24;;;;;;;6.60;1.50;;;;;;;;;;5035863;28;20516;-70
2021/04/10 11:08:52;;;;;;;8.37;2.20;;;;;;;;;;5037198;28;20549;-71
2021/04/10 11:11:27;;;;;;;4.27;1.60;;;;;;;;;;5027467;28;20487;-71
2021/04/10 11:14:04;;;;;;;5.60;1.30;;;;;;;;;;5029528;28;20505;-70
2021/04/10 11:16:31;;;;;;;4.43;1.97;;;;;;;;;;5029140;28;20561;-69
2021/04/10 11:19:00;;;;;;;10.43;1.70;;;;;;;;;;5038788;28;20461;-69
2021/04/10 11:21:30;;;;;;;4.43;1.87;;;;;;;;;;5039377;28;20538;-70
2021/04/10 11:24:10;;;;;;;4.90;1.50;;;;;;;;;;5038652;28;20553;-70
2021/04/10 11:26:49;;;;;;;6.03;1.60;;;;;;;;;;5037935;28;20454;-70
2021/04/10 11:32:14;;;;;;;5.40;1.70;;;;;;;;;;5018211;28;21102;-70
2021/04/10 11:34:47;;;;;;;7.63;2.90;;;;;;;;;;5022680;28;20464;-71
2021/04/10 11:37:16;;;;;;;5.47;1.53;;;;;;;;;;5036084;28;20568;-70
2021/04/10 11:39:52;;;;;;;6.40;3.37;;;;;;;;;;5035868;28;20659;-70
2021/04/10 11:42:30;;;;;;;10.03;1.70;;;;;;;;;;5035208;28;20550;-69
2021/04/10 11:45:06;;;;;;;6.97;1.60;;;;;;;;;;5019724;28;20787;-70
2021/04/10 11:47:41;;;;;;;7.30;1.90;;;;;;;;;;5018409;28;20557;-69
2021/04/10 11:50:12;;;;;;;5.73;1.60;;;;;;;;;;5034759;28;20580;-69
2021/04/10 11:52:45;;;;;;;6.70;1.80;;;;;;;;;;5038214;28;20454;-69
2021/04/10 11:55:14;;;;;;;8.40;2.60;;;;;;;;;;5023057;28;20472;-70
2021/04/10 11:57:52;;;;;;;3.40;1.40;;;;;;;;;;5034482;28;20449;-70
2021/04/10 12:00:25;;;;;;;4.20;1.60;;;;;;;;;;5038099;28;20482;-69
2021/04/10 12:02:53;;;;;;;4.13;1.40;;;;;;;;;;5037586;28;20524;-69
2021/04/10 12:05:23;;;;;;;9.27;1.50;;;;;;;;;;5038553;28;20454;-69
2021/04/10 12:08:09;;;;;;;6.23;1.90;;;;;;;;;;5037043;28;20451;-70
2021/04/10 12:10:38;;;;;;;4.87;1.60;;;;;;;;;;5036967;28;20474;-70
2021/04/10 12:13:05;;;;;;;5.70;1.80;;;;;;;;;;5036547;28;20462;-69
2021/04/10 12:15:54;;;;;;;3.77;1.47;;;;;;;;;;5036773;28;20451;-70
2021/04/10 12:18:24;;;;;;;7.40;2.13;;;;;;;;;;5036187;28;20539;-70
2021/04/10 12:20:56;;;;;;;7.00;1.87;;;;;;;;;;5034828;28;20490;-70
2021/04/10 12:23:42;;;;;;;4.10;1.50;;;;;;;;;;5017255;28;20452;-70
2021/04/10 12:26:09;;;;;;;6.73;1.53;;;;;;;;;;5018465;28;20730;-70
2021/04/10 12:28:37;;;;;;;5.00;2.60;;;;;;;;;;5018159;28;20934;-70
2021/04/10 12:31:26;;;;;;;8.20;2.70;;;;;;;;;;5017937;28;20487;-70
2021/04/10 12:33:53;;;;;;;6.37;1.60;;;;;;;;;;5016999;28;20467;-70
2021/04/10 12:36:21;;;;;;;6.03;1.70;;;;;;;;;;5022910;28;20859;-70
2021/04/10 12:38:51;;;;;;;6.90;1.50;;;;;;;;;;5050104;28;20456;-70
2021/04/10 12:41:22;;;;;;;8.13;1.97;;;;;;;;;;5056713;28;20466;-70
2021/04/10 12:43:49;;;;;;;4.73;1.67;;;;;;;;;;5037178;28;20560;-70
2021/04/10 12:46:18;;;;;;;6.70;1.77;;;;;;;;;;5037355;28;20461;-70
2021/04/10 12:49:04;;;;;;;4.10;1.20;;;;;;;;;;5035497;28;20518;-69
2021/04/10 12:51:55;;;;;;;4.70;1.43;;;;;;;;;;5035982;28;20652;-70
2021/04/10 12:54:22;;;;;;;6.30;1.40;;;;;;;;;;5036968;28;20592;-69
2021/04/10 12:56:54;;;;;;;3.63;1.43;;;;;;;;;;5036712;28;20465;-69
2021/04/10 12:59:22;;;;;;;4.50;1.33;;;;;;;;;;5036043;28;20469;-72
2021/04/10 13:01:49;;;;;;;6.03;1.30;;;;;;;;;;5029233;28;20462;-70
2021/04/10 13:04:23;;;;;;;5.60;1.93;;;;;;;;;;5037051;28;20469;-70
2021/04/10 13:06:53;;;;;;;6.93;1.83;;;;;;;;;;5037446;28;20459;-71
2021/04/10 13:09:20;;;;;;;6.70;1.90;;;;;;;;;;5036476;28;20499;-71
2021/04/10 13:12:02;;;;;;;4.20;1.43;;;;;;;;;;5046607;28;20528;-70
2021/04/10 13:14:32;;;;;;;6.50;2.20;;;;;;;;;;5028865;28;21094;-71
2021/04/10 13:16:59;;;;;;;5.60;1.80;;;;;;;;;;5035951;28;20936;-70
2021/04/10 13:19:28;;;;;;;5.13;1.53;;;;;;;;;;5049415;28;20807;-71
2021/04/10 13:21:58;;;;;;;6.03;1.50;;;;;;;;;;5036815;28;20890;-70
2021/04/10 13:24:28;;;;;;;4.73;1.43;;;;;;;;;;5035628;28;20536;-72
2021/04/10 13:26:57;;;;;;;5.00;1.53;;;;;;;;;;5036414;28;20910;-72
2021/04/10 13:29:25;;;;;;;5.77;1.40;;;;;;;;;;5035295;28;20454;-71
2021/04/10 13:31:52;;;;;;;5.83;1.57;;;;;;;;;;5034199;28;20494;-70
2021/04/10 13:34:20;;;;;;;6.80;1.47;;;;;;;;;;5035978;28;20468;-70
2021/04/10 13:36:52;;;;;;;4.77;1.43;;;;;;;;;;5034343;28;20813;-71
2021/04/10 13:39:19;;;;;;;8.23;1.53;;;;;;;;;;5036305;28;20504;-70
2021/04/10 13:41:52;;;;;;;3.80;1.27;;;;;;;;;;5035517;28;20454;-71
2021/04/10 13:44:19;;;;;;;2.70;0.97;;;;;;;;;;5036688;28;20936;-70
2021/04/10 13:46:47;;;;;;;6.40;1.80;;;;;;;;;;5036646;28;20454;-70
2021/04/10 13:49:16;;;;;;;29.17;15.03;;;;;;;;;;5035504;28;20501;-69
2021/04/10 13:51:45;;;;;;;4.30;1.50;;;;;;;;;;5035442;28;20496;-70
2021/04/10 13:54:13;;;;;;;5.10;1.50;;;;;;;;;;5035963;28;20750;-69
2021/04/10 13:56:41;;;;;;;6.63;1.73;;;;;;;;;;5035292;28;20486;-70
2021/04/10 13:59:08;;;;;;;9.10;1.60;;;;;;;;;;5035175;28;20454;-70
2021/04/10 14:01:35;;;;;;;8.00;1.40;;;;;;;;;;5031459;28;20471;-71
2021/04/10 14:04:07;;;;;;;4.10;1.83;;;;;;;;;;5016682;28;20467;-71
2021/04/10 14:06:42;;;;;;;7.93;1.70;;;;;;;;;;5019161;28;20451;-73
2021/04/10 14:09:10;;;;;;;7.60;1.10;;;;;;;;;;5024321;28;20581;-71
2021/04/10 14:11:37;;;;;;;4.77;1.93;;;;;;;;;;5026840;28;20482;-70
2021/04/10 14:14:05;;;;;;;6.20;1.80;;;;;;;;;;5017191;28;20522;-70
2021/04/10 14:16:38;;;;;;;8.73;1.63;;;;;;;;;;5022606;28;20456;-71
2021/04/10 14:19:06;;;;;;;8.60;2.53;;;;;;;;;;5016341;28;20452;-70
2021/04/10 14:21:33;;;;;;;3.50;1.20;;;;;;;;;;5016800;28;20459;-70
2021/04/10 14:24:01;;;;;;;7.30;1.80;;;;;;;;;;5029417;28;20451;-71
2021/04/10 14:26:29;;;;;;;8.50;2.17;;;;;;;;;;5035519;28;20901;-70
2021/04/10 14:28:58;;;;;;;8.10;1.90;;;;;;;;;;5047999;28;20463;-71
2021/04/10 14:31:26;;;;;;;5.00;1.80;;;;;;;;;;5028083;28;20491;-70
2021/04/10 14:34:01;;;;;;;4.70;1.50;;;;;;;;;;5016881;28;20562;-72
2021/04/10 14:36:28;;;;;;;10.60;2.23;;;;;;;;;;5027268;28;20533;-71
2021/04/10 14:38:58;;;;;;;7.40;1.87;;;;;;;;;;5056035;28;20450;-71
2021/04/10 14:41:33;;;;;;;4.23;1.60;;;;;;;;;;5055901;28;21024;-71
2021/04/10 14:44:01;;;;;;;6.40;2.67;;;;;;;;;;5057218;28;20772;-70
2021/04/10 14:46:40;;;;;;;7.37;1.67;;;;;;;;;;5059553;28;20457;-71
2021/04/10 14:49:12;;;;;;;4.97;2.00;;;;;;;;;;5059745;28;20523;-71
2021/04/10 14:51:41;;;;;;;4.50;2.10;;;;;;;;;;5059286;28;20488;-70
2021/04/10 14:54:13;;;;;;;5.30;1.40;;;;;;;;;;5059966;28;20517;-71
2021/04/10 14:56:45;;;;;;;3.90;1.43;;;;;;;;;;5058563;28;20446;-71
2021/04/10 14:59:16;;;;;;;5.83;1.57;;;;;;;;;;5058332;28;21008;-71
2021/04/10 15:02:03;;;;;;;;;;;;;;;;;;;;;
2021/04/10 15:04:45;;;;;;;5.83;1.60;;;;;;;;;;5047887;28;20446;-71
2021/04/10 15:07:14;;;;;;;6.97;2.23;;;;;;;;;;5057087;28;20453;-71
2021/04/10 15:09:47;;;;;;;5.37;1.30;;;;;;;;;;5058311;28;20460;-70
2021/04/10 15:12:16;;;;;;;7.13;1.63;;;;;;;;;;5058373;28;20550;-71
2021/04/10 15:14:46;;;;;;;6.60;1.30;;;;;;;;;;5058154;28;20454;-71